Terminal Aerodrome Forecast
Issued by NWS

Home | Current Version | Previous Version | Text Only | Print | Product List | Glossary On
Versions: 1 2 3 4 5 6 7 8 9 10 11 12 13 14 15 16 17 18
000
FTUS42 KMLB 061725
TAFSFB
TAF
KSFB 061725Z 0618/0718 01012KT P6SM OVC010
     FM070000 36016G23KT P6SM OVC008
     FM070600 36012KT P6SM OVC004
     FM071400 02012KT P6SM SCT008 OVC020=

USA.gov is the U.S. government's official web portal to all federal, state and local government web resources and services.